Latest METARs, TAFs and NOTAMs for LIML


---------------------------------------------------------------------------
	(OBSERVATIONS)
LIML 180950Z 12003KT 060V180 CAVOK 15/10 Q1025 NOSIG=
LIML 180920Z 11003KT 050V200 8000 NSC 14/09 Q1025 NOSIG=
LIML 180850Z VRB02KT 7000 NSC 14/09 Q1025 NOSIG=
LIML 180820Z VRB01KT 7000 NSC 13/10 Q1025 NOSIG=
LIML 180750Z 20002KT 6000 NSC 11/10 Q1024 NOSIG=
LIML 180720Z 19001KT 5000 BCFG NSC 10/10 Q1024 BECMG 7000=
---------------------------------------------------------------------------
	(FC)
Sorry, FC For LIML Not Found
---------------------------------------------------------------------------
	(TERMINAL AREA FORECAST)
LIML 180600Z NIL=
---------------------------------------------------------------------------
	(NOTAMS)


Sorry, no NOTAM available for LIML
---------------------------------------------------------------------------